Ferry Kyoto II — JI3701 — position and weather

sailwx.info

Track history (hours):
 
Tides and Currents Weather Stations Pressure Air Temp Water Temp Dewpoint Dewpoint Depression Visibility Wind Speed Wind Dir Waves Ship Positions

Ferry Kyoto II

Last reported at 2016-Apr-30 08:33 UTC. Time now 2016-Apr-30 09:00 UTC.
Position N 34°36' E 135°18'.

Length 167 m; draft 5.9 m.

Type: Passenger vessel. MMSI: 431301641.

Date/timePositionNaut miles runAvg speedWind from/ knotsBaromVisibWave heightAir tempDewpointWater temp
2016-Apr-30 08:33N 34°36' E 135°18'7 6.0
2016-Apr-30 07:28N 34°37' E 135°26'0 0.0
2016-Apr-30 06:28N 34°37' E 135°26'0 0.0
2016-Apr-30 05:22N 34°37' E 135°26'0 0.0
2016-Apr-30 04:28N 34°37' E 135°26'0 0.0
2016-Apr-30 03:16N 34°37' E 135°26'0 0.0
2016-Apr-30 02:28N 34°37' E 135°26'0 0.0
2016-Apr-30 01:28N 34°37' E 135°26'0 0.0
2016-Apr-30 00:28N 34°37' E 135°26'0 0.0
2016-Apr-29 23:28N 34°37' E 135°26'0 0.0
2016-Apr-29 22:28N 34°37' E 135°26'0 0.0
2016-Apr-29 21:28N 34°37' E 135°26'0 0.0
2016-Apr-29 20:32N 34°37' E 135°26'1111.4
2016-Apr-29 19:33N 34°35' E 135°13'2019.6
2016-Apr-29 18:32N 34°33' E 134°48'7 0.2
2016-Apr-28 09:33N 34°36' E 134°55'2020.0
2016-Apr-28 08:33N 34°36' E 135°19'5 5.1
2016-Apr-28 07:29N 34°37' E 135°26'0 0.0
2016-Apr-28 06:29N 34°37' E 135°26'0 0.0
2016-Apr-28 05:29N 34°37' E 135°26'0 0.0
2016-Apr-28 04:29N 34°37' E 135°26'0 0.0
2016-Apr-28 03:29N 34°37' E 135°26'0 0.0
2016-Apr-28 02:29N 34°37' E 135°26'0 0.0
2016-Apr-28 01:29N 34°37' E 135°26'0 0.0
2016-Apr-28 00:29N 34°37' E 135°26'0 0.0
2016-Apr-27 23:29N 34°37' E 135°26'0 0.0
2016-Apr-27 22:29N 34°37' E 135°26'0 0.0
2016-Apr-27 21:29N 34°37' E 135°26'0 0.0
2016-Apr-27 20:24N 34°37' E 135°26'1315.0
2016-Apr-27 19:33N 34°35' E 135°11'2019.5
2016-Apr-27 18:32N 34°33' E 134°47'8 0.3
2016-Apr-26 09:33N 34°37' E 134°56'1919.1
2016-Apr-26 08:33N 34°37' E 135°19'6 5.4
2016-Apr-26 07:28N 34°37' E 135°26'0 0.0
2016-Apr-26 06:22N 34°37' E 135°26'0 0.0
2016-Apr-26 05:28N 34°37' E 135°26'0 0.0
2016-Apr-26 04:16N 34°37' E 135°26'0 0.0
2016-Apr-26 03:28N 34°37' E 135°26'0 0.0
2016-Apr-26 02:16N 34°37' E 135°26'0 0.0
2016-Apr-26 01:28N 34°37' E 135°26'0 0.0
2016-Apr-26 00:28N 34°37' E 135°26'0 0.0
2016-Apr-25 23:28N 34°37' E 135°26'0 0.0
2016-Apr-25 22:28N 34°37' E 135°26'0 0.0
2016-Apr-25 21:28N 34°37' E 135°26'0 0.0
2016-Apr-25 20:32N 34°37' E 135°26'1414.1
2016-Apr-25 19:33N 34°35' E 135°09'14 0.4
2016-Apr-24 09:33N 34°36' E 134°53'2020.6
2016-Apr-24 08:33N 34°37' E 135°18'7 6.6
2016-Apr-24 07:33N 34°37' E 135°26'0 0.0
2016-Apr-24 06:33N 34°37' E 135°26'0 0.0
2016-Apr-24 05:33N 34°37' E 135°26'0 0.0
2016-Apr-24 04:33N 34°37' E 135°26'0 0.0
2016-Apr-24 03:33N 34°37' E 135°26'0 0.0
2016-Apr-24 02:27N 34°37' E 135°26'0 0.0
2016-Apr-24 01:33N 34°37' E 135°26'0 0.0
2016-Apr-24 00:15N 34°37' E 135°26'0 0.0
2016-Apr-23 23:27N 34°37' E 135°26'0 0.0
2016-Apr-23 22:33N 34°37' E 135°26'0 0.0
2016-Apr-23 21:33N 34°37' E 135°26'0 0.0
2016-Apr-23 20:33N 34°37' E 135°26'1111.6
2016-Apr-23 19:33N 34°35' E 135°12'2019.8
2016-Apr-23 18:33N 34°33' E 134°48'8 0.2
2016-Apr-22 09:33N 34°37' E 134°56'2120.5
2016-Apr-22 08:33N 34°37' E 135°21'4 3.7
2016-Apr-22 07:27N 34°37' E 135°26'0 0.0
2016-Apr-22 06:21N 34°37' E 135°26'0 0.0
2016-Apr-22 05:33N 34°37' E 135°26'0 0.0
2016-Apr-22 04:27N 34°37' E 135°26'0 0.0
2016-Apr-22 03:33N 34°37' E 135°26'0 0.0
2016-Apr-22 02:33N 34°37' E 135°26'0 0.0
2016-Apr-22 01:33N 34°37' E 135°26'0 0.0
2016-Apr-22 00:33N 34°37' E 135°26'0 0.0
2016-Apr-21 23:33N 34°37' E 135°26'0 0.0
2016-Apr-21 22:33N 34°37' E 135°26'0 0.0
2016-Apr-21 21:33N 34°37' E 135°26'0 0.0
2016-Apr-21 20:33N 34°37' E 135°26'1010.1
2016-Apr-21 19:33N 34°35' E 135°14'1818.4
2016-Apr-21 18:33N 34°34' E 134°52'1 0.0
2016-Apr-20 09:34N 34°35' E 134°52'2121.4
2016-Apr-20 08:34N 34°36' E 135°17'  
Track history (hours):
 
Tides and Currents Weather Stations Pressure Air Temp Water Temp Dewpoint Dewpoint Depression Visibility Wind Speed Wind Dir Waves Ship Positions

Ferry Kyoto II

Last reported at 2016-Apr-30 08:33 UTC. Time now 2016-Apr-30 09:00 UTC.
Position N 34°36' E 135°18'.

Length 167 m; draft 5.9 m.

Type: Passenger vessel. MMSI: 431301641.

Date/timePositionNaut miles runAvg speedWind from/ knotsBaromVisibWave heightAir tempDewpointWater temp
2016-Apr-30 08:33N 34°36' E 135°18'7 6.0
2016-Apr-30 07:28N 34°37' E 135°26'0 0.0
2016-Apr-30 06:28N 34°37' E 135°26'0 0.0
2016-Apr-30 05:22N 34°37' E 135°26'0 0.0
2016-Apr-30 04:28N 34°37' E 135°26'0 0.0
2016-Apr-30 03:16N 34°37' E 135°26'0 0.0
2016-Apr-30 02:28N 34°37' E 135°26'0 0.0
2016-Apr-30 01:28N 34°37' E 135°26'0 0.0
2016-Apr-30 00:28N 34°37' E 135°26'0 0.0
2016-Apr-29 23:28N 34°37' E 135°26'0 0.0
2016-Apr-29 22:28N 34°37' E 135°26'0 0.0
2016-Apr-29 21:28N 34°37' E 135°26'0 0.0
2016-Apr-29 20:32N 34°37' E 135°26'1111.4
2016-Apr-29 19:33N 34°35' E 135°13'2019.6
2016-Apr-29 18:32N 34°33' E 134°48'7 0.2
2016-Apr-28 09:33N 34°36' E 134°55'2020.0
2016-Apr-28 08:33N 34°36' E 135°19'5 5.1
2016-Apr-28 07:29N 34°37' E 135°26'0 0.0
2016-Apr-28 06:29N 34°37' E 135°26'0 0.0
2016-Apr-28 05:29N 34°37' E 135°26'0 0.0
2016-Apr-28 04:29N 34°37' E 135°26'0 0.0
2016-Apr-28 03:29N 34°37' E 135°26'0 0.0
2016-Apr-28 02:29N 34°37' E 135°26'0 0.0
2016-Apr-28 01:29N 34°37' E 135°26'0 0.0
2016-Apr-28 00:29N 34°37' E 135°26'0 0.0
2016-Apr-27 23:29N 34°37' E 135°26'0 0.0
2016-Apr-27 22:29N 34°37' E 135°26'0 0.0
2016-Apr-27 21:29N 34°37' E 135°26'0 0.0
2016-Apr-27 20:24N 34°37' E 135°26'1315.0
2016-Apr-27 19:33N 34°35' E 135°11'2019.5
2016-Apr-27 18:32N 34°33' E 134°47'8 0.3
2016-Apr-26 09:33N 34°37' E 134°56'1919.1
2016-Apr-26 08:33N 34°37' E 135°19'6 5.4
2016-Apr-26 07:28N 34°37' E 135°26'0 0.0
2016-Apr-26 06:22N 34°37' E 135°26'0 0.0
2016-Apr-26 05:28N 34°37' E 135°26'0 0.0
2016-Apr-26 04:16N 34°37' E 135°26'0 0.0
2016-Apr-26 03:28N 34°37' E 135°26'0 0.0
2016-Apr-26 02:16N 34°37' E 135°26'0 0.0
2016-Apr-26 01:28N 34°37' E 135°26'0 0.0
2016-Apr-26 00:28N 34°37' E 135°26'0 0.0
2016-Apr-25 23:28N 34°37' E 135°26'0 0.0
2016-Apr-25 22:28N 34°37' E 135°26'0 0.0
2016-Apr-25 21:28N 34°37' E 135°26'0 0.0
2016-Apr-25 20:32N 34°37' E 135°26'1414.1
2016-Apr-25 19:33N 34°35' E 135°09'14 0.4
2016-Apr-24 09:33N 34°36' E 134°53'2020.6
2016-Apr-24 08:33N 34°37' E 135°18'7 6.6
2016-Apr-24 07:33N 34°37' E 135°26'0 0.0
2016-Apr-24 06:33N 34°37' E 135°26'0 0.0
2016-Apr-24 05:33N 34°37' E 135°26'0 0.0
2016-Apr-24 04:33N 34°37' E 135°26'0 0.0
2016-Apr-24 03:33N 34°37' E 135°26'0 0.0
2016-Apr-24 02:27N 34°37' E 135°26'0 0.0
2016-Apr-24 01:33N 34°37' E 135°26'0 0.0
2016-Apr-24 00:15N 34°37' E 135°26'0 0.0
2016-Apr-23 23:27N 34°37' E 135°26'0 0.0
2016-Apr-23 22:33N 34°37' E 135°26'0 0.0
2016-Apr-23 21:33N 34°37' E 135°26'0 0.0
2016-Apr-23 20:33N 34°37' E 135°26'1111.6
2016-Apr-23 19:33N 34°35' E 135°12'2019.8
2016-Apr-23 18:33N 34°33' E 134°48'8 0.2
2016-Apr-22 09:33N 34°37' E 134°56'2120.5
2016-Apr-22 08:33N 34°37' E 135°21'4 3.7
2016-Apr-22 07:27N 34°37' E 135°26'0 0.0
2016-Apr-22 06:21N 34°37' E 135°26'0 0.0
2016-Apr-22 05:33N 34°37' E 135°26'0 0.0
2016-Apr-22 04:27N 34°37' E 135°26'0 0.0
2016-Apr-22 03:33N 34°37' E 135°26'0 0.0
2016-Apr-22 02:33N 34°37' E 135°26'0 0.0
2016-Apr-22 01:33N 34°37' E 135°26'0 0.0
2016-Apr-22 00:33N 34°37' E 135°26'0 0.0
2016-Apr-21 23:33N 34°37' E 135°26'0 0.0
2016-Apr-21 22:33N 34°37' E 135°26'0 0.0
2016-Apr-21 21:33N 34°37' E 135°26'0 0.0
2016-Apr-21 20:33N 34°37' E 135°26'1010.1
2016-Apr-21 19:33N 34°35' E 135°14'1818.4
2016-Apr-21 18:33N 34°34' E 134°52'1 0.0
2016-Apr-20 09:34N 34°35' E 134°52'2121.4
2016-Apr-20 08:34N 34°36' E 135°17'  

Dump ship's entire track history